sensor_id;sensor_type;location;lat;lon;timestamp;P1;durP1;ratioP1;P2;durP2;ratioP2
55069;SDS011;40967;52.070;8.596;2023-02-20T00:01:21;8.70;;;6.10;;
55069;SDS011;40967;52.070;8.596;2023-02-20T00:03:48;8.20;;;5.40;;
55069;SDS011;40967;52.070;8.596;2023-02-20T00:06:13;8.50;;;5.63;;
55069;SDS011;40967;52.070;8.596;2023-02-20T00:08:38;9.40;;;6.83;;
55069;SDS011;40967;52.070;8.596;2023-02-20T00:11:05;9.52;;;6.50;;
55069;SDS011;40967;52.070;8.596;2023-02-20T00:13:31;8.57;;;5.65;;
55069;SDS011;40967;52.070;8.596;2023-02-20T00:15:56;7.18;;;4.85;;
55069;SDS011;40967;52.070;8.596;2023-02-20T00:18:22;9.23;;;5.90;;
55069;SDS011;40967;52.070;8.596;2023-02-20T00:20:47;7.93;;;5.83;;
55069;SDS011;40967;52.070;8.596;2023-02-20T00:23:13;9.32;;;6.70;;
55069;SDS011;40967;52.070;8.596;2023-02-20T00:25:38;9.23;;;6.23;;
55069;SDS011;40967;52.070;8.596;2023-02-20T00:28:04;12.40;;;8.23;;
55069;SDS011;40967;52.070;8.596;2023-02-20T00:30:29;10.50;;;7.40;;
55069;SDS011;40967;52.070;8.596;2023-02-20T00:32:55;10.93;;;7.83;;
55069;SDS011;40967;52.070;8.596;2023-02-20T00:35:21;10.70;;;7.80;;
55069;SDS011;40967;52.070;8.596;2023-02-20T00:37:48;10.50;;;7.13;;
55069;SDS011;40967;52.070;8.596;2023-02-20T00:40:14;12.63;;;8.63;;
55069;SDS011;40967;52.070;8.596;2023-02-20T00:42:40;12.52;;;9.20;;
55069;SDS011;40967;52.070;8.596;2023-02-20T00:45:06;11.37;;;8.57;;
55069;SDS011;40967;52.070;8.596;2023-02-20T00:47:32;12.35;;;8.90;;
55069;SDS011;40967;52.070;8.596;2023-02-20T00:49:58;11.35;;;8.15;;
55069;SDS011;40967;52.070;8.596;2023-02-20T00:52:23;11.97;;;7.97;;
55069;SDS011;40967;52.070;8.596;2023-02-20T00:54:49;11.55;;;8.20;;
55069;SDS011;40967;52.070;8.596;2023-02-20T00:57:14;11.37;;;8.13;;
55069;SDS011;40967;52.070;8.596;2023-02-20T00:59:40;10.53;;;7.47;;
55069;SDS011;40967;52.070;8.596;2023-02-20T01:02:05;8.40;;;5.80;;
55069;SDS011;40967;52.070;8.596;2023-02-20T01:04:31;9.87;;;6.67;;
55069;SDS011;40967;52.070;8.596;2023-02-20T01:06:56;12.20;;;8.32;;
55069;SDS011;40967;52.070;8.596;2023-02-20T01:09:22;11.50;;;7.97;;
55069;SDS011;40967;52.070;8.596;2023-02-20T01:11:47;9.85;;;6.88;;
55069;SDS011;40967;52.070;8.596;2023-02-20T01:14:13;13.83;;;9.63;;
55069;SDS011;40967;52.070;8.596;2023-02-20T01:16:45;12.17;;;8.50;;
55069;SDS011;40967;52.070;8.596;2023-02-20T01:19:11;10.25;;;6.93;;
55069;SDS011;40967;52.070;8.596;2023-02-20T01:21:37;9.88;;;6.57;;
55069;SDS011;40967;52.070;8.596;2023-02-20T01:24:02;10.50;;;6.77;;
55069;SDS011;40967;52.070;8.596;2023-02-20T01:26:28;11.83;;;7.93;;
55069;SDS011;40967;52.070;8.596;2023-02-20T01:28:53;12.98;;;8.35;;
55069;SDS011;40967;52.070;8.596;2023-02-20T01:31:19;9.23;;;6.50;;
55069;SDS011;40967;52.070;8.596;2023-02-20T01:33:44;9.27;;;6.13;;
55069;SDS011;40967;52.070;8.596;2023-02-20T01:36:10;11.27;;;7.20;;
55069;SDS011;40967;52.070;8.596;2023-02-20T01:38:36;12.52;;;8.05;;
55069;SDS011;40967;52.070;8.596;2023-02-20T01:41:03;12.13;;;7.53;;
55069;SDS011;40967;52.070;8.596;2023-02-20T01:43:29;11.47;;;7.40;;
55069;SDS011;40967;52.070;8.596;2023-02-20T01:46:18;11.07;;;7.00;;
55069;SDS011;40967;52.070;8.596;2023-02-20T01:49:00;11.37;;;7.23;;
55069;SDS011;40967;52.070;8.596;2023-02-20T01:51:30;12.43;;;7.80;;
55069;SDS011;40967;52.070;8.596;2023-02-20T01:54:03;12.67;;;8.53;;
55069;SDS011;40967;52.070;8.596;2023-02-20T01:56:31;13.18;;;8.43;;
55069;SDS011;40967;52.070;8.596;2023-02-20T01:58:57;12.63;;;8.00;;
55069;SDS011;40967;52.070;8.596;2023-02-20T02:01:22;11.80;;;7.40;;
55069;SDS011;40967;52.070;8.596;2023-02-20T02:03:48;12.30;;;7.40;;
55069;SDS011;40967;52.070;8.596;2023-02-20T02:06:21;9.90;;;6.07;;
55069;SDS011;40967;52.070;8.596;2023-02-20T02:08:46;9.65;;;6.40;;
55069;SDS011;40967;52.070;8.596;2023-02-20T02:11:14;10.37;;;6.07;;
55069;SDS011;40967;52.070;8.596;2023-02-20T02:13:43;8.70;;;5.55;;
55069;SDS011;40967;52.070;8.596;2023-02-20T02:16:13;12.50;;;7.60;;
55069;SDS011;40967;52.070;8.596;2023-02-20T02:44:30;14.20;;;9.43;;
55069;SDS011;40967;52.070;8.596;2023-02-20T02:47:02;15.95;;;9.50;;
55069;SDS011;40967;52.070;8.596;2023-02-20T02:49:43;14.80;;;9.93;;
55069;SDS011;40967;52.070;8.596;2023-02-20T02:52:19;13.18;;;8.82;;
55069;SDS011;40967;52.070;8.596;2023-02-20T02:55:13;20.23;;;11.83;;
55069;SDS011;40967;52.070;8.596;2023-02-20T02:57:41;14.70;;;9.75;;
55069;SDS011;40967;52.070;8.596;2023-02-20T03:00:23;18.07;;;9.93;;
55069;SDS011;40967;52.070;8.596;2023-02-20T03:03:40;13.25;;;8.63;;
55069;SDS011;40967;52.070;8.596;2023-02-20T03:05:57;13.45;;;8.60;;
55069;SDS011;40967;52.070;8.596;2023-02-20T03:10:59;16.08;;;9.65;;
55069;SDS011;40967;52.070;8.596;2023-02-20T03:13:28;13.13;;;7.90;;
55069;SDS011;40967;52.070;8.596;2023-02-20T03:16:16;14.32;;;8.90;;
55069;SDS011;40967;52.070;8.596;2023-02-20T03:18:45;14.80;;;8.73;;
55069;SDS011;40967;52.070;8.596;2023-02-20T03:21:13;16.23;;;9.52;;
55069;SDS011;40967;52.070;8.596;2023-02-20T03:23:43;18.92;;;10.48;;
55069;SDS011;40967;52.070;8.596;2023-02-20T03:26:22;14.77;;;8.70;;
55069;SDS011;40967;52.070;8.596;2023-02-20T03:28:58;16.38;;;9.93;;
55069;SDS011;40967;52.070;8.596;2023-02-20T03:31:31;15.43;;;9.05;;
55069;SDS011;40967;52.070;8.596;2023-02-20T03:34:03;16.23;;;9.07;;
55069;SDS011;40967;52.070;8.596;2023-02-20T03:36:56;15.18;;;8.80;;
55069;SDS011;40967;52.070;8.596;2023-02-20T03:39:43;16.75;;;9.75;;
55069;SDS011;40967;52.070;8.596;2023-02-20T03:42:32;18.40;;;10.10;;
55069;SDS011;40967;52.070;8.596;2023-02-20T03:45:19;15.75;;;8.88;;
55069;SDS011;40967;52.070;8.596;2023-02-20T03:47:48;16.83;;;9.60;;
55069;SDS011;40967;52.070;8.596;2023-02-20T03:50:17;16.75;;;8.70;;
55069;SDS011;40967;52.070;8.596;2023-02-20T03:53:02;17.15;;;9.82;;
55069;SDS011;40967;52.070;8.596;2023-02-20T03:55:27;17.07;;;9.50;;
55069;SDS011;40967;52.070;8.596;2023-02-20T03:57:54;16.57;;;8.93;;
55069;SDS011;40967;52.070;8.596;2023-02-20T04:00:24;16.77;;;9.55;;
55069;SDS011;40967;52.070;8.596;2023-02-20T04:02:55;18.88;;;10.25;;
55069;SDS011;40967;52.070;8.596;2023-02-20T04:05:28;15.93;;;8.98;;
55069;SDS011;40967;52.070;8.596;2023-02-20T04:08:07;16.73;;;8.63;;
55069;SDS011;40967;52.070;8.596;2023-02-20T04:10:38;20.33;;;11.48;;
55069;SDS011;40967;52.070;8.596;2023-02-20T04:13:07;18.27;;;10.93;;
55069;SDS011;40967;52.070;8.596;2023-02-20T04:15:36;16.77;;;10.03;;
55069;SDS011;40967;52.070;8.596;2023-02-20T04:18:03;15.63;;;9.10;;
55069;SDS011;40967;52.070;8.596;2023-02-20T04:20:33;18.73;;;9.73;;
55069;SDS011;40967;52.070;8.596;2023-02-20T04:23:00;21.03;;;11.03;;
55069;SDS011;40967;52.070;8.596;2023-02-20T04:25:43;16.88;;;9.55;;
55069;SDS011;40967;52.070;8.596;2023-02-20T04:28:12;20.02;;;10.70;;
55069;SDS011;40967;52.070;8.596;2023-02-20T04:30:38;19.27;;;10.35;;
55069;SDS011;40967;52.070;8.596;2023-02-20T04:33:04;17.75;;;10.07;;
55069;SDS011;40967;52.070;8.596;2023-02-20T04:35:29;18.93;;;10.50;;
55069;SDS011;40967;52.070;8.596;2023-02-20T04:37:55;19.23;;;10.50;;
55069;SDS011;40967;52.070;8.596;2023-02-20T04:40:21;17.77;;;9.50;;
55069;SDS011;40967;52.070;8.596;2023-02-20T04:42:48;18.23;;;10.00;;
55069;SDS011;40967;52.070;8.596;2023-02-20T04:45:13;16.00;;;8.80;;
55069;SDS011;40967;52.070;8.596;2023-02-20T04:47:41;16.77;;;8.90;;
55069;SDS011;40967;52.070;8.596;2023-02-20T04:50:07;17.13;;;8.67;;
55069;SDS011;40967;52.070;8.596;2023-02-20T04:52:33;19.83;;;10.75;;
55069;SDS011;40967;52.070;8.596;2023-02-20T04:54:58;19.77;;;10.13;;
55069;SDS011;40967;52.070;8.596;2023-02-20T04:57:24;20.50;;;10.43;;
55069;SDS011;40967;52.070;8.596;2023-02-20T04:59:49;17.15;;;9.57;;
55069;SDS011;40967;52.070;8.596;2023-02-20T05:02:14;18.93;;;10.70;;
55069;SDS011;40967;52.070;8.596;2023-02-20T05:04:40;16.77;;;9.23;;
55069;SDS011;40967;52.070;8.596;2023-02-20T05:07:05;17.13;;;8.95;;
55069;SDS011;40967;52.070;8.596;2023-02-20T05:09:31;15.33;;;8.50;;
55069;SDS011;40967;52.070;8.596;2023-02-20T05:11:56;14.70;;;8.20;;
55069;SDS011;40967;52.070;8.596;2023-02-20T05:14:22;17.17;;;8.23;;
55069;SDS011;40967;52.070;8.596;2023-02-20T05:16:47;19.20;;;9.23;;
55069;SDS011;40967;52.070;8.596;2023-02-20T05:19:15;18.88;;;9.60;;
55069;SDS011;40967;52.070;8.596;2023-02-20T05:21:41;19.50;;;9.15;;
55069;SDS011;40967;52.070;8.596;2023-02-20T05:24:30;15.48;;;8.32;;
55069;SDS011;40967;52.070;8.596;2023-02-20T05:26:56;17.20;;;9.02;;
55069;SDS011;40967;52.070;8.596;2023-02-20T05:29:21;17.83;;;9.40;;
55069;SDS011;40967;52.070;8.596;2023-02-20T05:31:47;16.48;;;8.32;;
55069;SDS011;40967;52.070;8.596;2023-02-20T05:34:13;14.80;;;7.97;;
55069;SDS011;40967;52.070;8.596;2023-02-20T05:36:38;15.80;;;8.70;;
55069;SDS011;40967;52.070;8.596;2023-02-20T05:39:03;15.77;;;8.57;;
55069;SDS011;40967;52.070;8.596;2023-02-20T05:41:29;14.13;;;7.63;;
55069;SDS011;40967;52.070;8.596;2023-02-20T05:43:55;16.58;;;8.63;;
55069;SDS011;40967;52.070;8.596;2023-02-20T05:46:21;18.38;;;8.63;;
55069;SDS011;40967;52.070;8.596;2023-02-20T05:48:51;16.10;;;8.02;;
55069;SDS011;40967;52.070;8.596;2023-02-20T05:51:21;17.23;;;8.77;;
55069;SDS011;40967;52.070;8.596;2023-02-20T05:53:48;16.23;;;8.25;;
55069;SDS011;40967;52.070;8.596;2023-02-20T05:56:13;17.80;;;8.70;;
55069;SDS011;40967;52.070;8.596;2023-02-20T05:58:40;17.00;;;8.03;;
55069;SDS011;40967;52.070;8.596;2023-02-20T06:01:06;17.63;;;8.70;;
55069;SDS011;40967;52.070;8.596;2023-02-20T06:03:32;16.80;;;8.80;;
55069;SDS011;40967;52.070;8.596;2023-02-20T06:05:57;19.07;;;10.10;;
55069;SDS011;40967;52.070;8.596;2023-02-20T06:08:23;15.45;;;8.40;;
55069;SDS011;40967;52.070;8.596;2023-02-20T06:10:48;18.10;;;9.17;;
55069;SDS011;40967;52.070;8.596;2023-02-20T06:13:17;16.90;;;9.27;;
55069;SDS011;40967;52.070;8.596;2023-02-20T06:15:45;14.45;;;9.05;;
55069;SDS011;40967;52.070;8.596;2023-02-20T06:18:11;22.50;;;12.03;;
55069;SDS011;40967;52.070;8.596;2023-02-20T06:20:36;22.17;;;11.43;;
55069;SDS011;40967;52.070;8.596;2023-02-20T06:23:02;21.27;;;12.30;;
55069;SDS011;40967;52.070;8.596;2023-02-20T06:25:29;20.80;;;12.52;;
55069;SDS011;40967;52.070;8.596;2023-02-20T06:27:55;21.25;;;11.68;;
55069;SDS011;40967;52.070;8.596;2023-02-20T06:30:20;20.63;;;11.97;;
55069;SDS011;40967;52.070;8.596;2023-02-20T06:32:46;20.13;;;12.20;;
55069;SDS011;40967;52.070;8.596;2023-02-20T06:35:20;21.87;;;12.37;;
55069;SDS011;40967;52.070;8.596;2023-02-20T06:37:46;24.77;;;14.65;;
55069;SDS011;40967;52.070;8.596;2023-02-20T06:40:12;25.57;;;15.23;;
55069;SDS011;40967;52.070;8.596;2023-02-20T06:42:37;27.27;;;16.92;;
55069;SDS011;40967;52.070;8.596;2023-02-20T06:45:03;26.30;;;15.47;;
55069;SDS011;40967;52.070;8.596;2023-02-20T06:47:29;28.75;;;17.02;;
55069;SDS011;40967;52.070;8.596;2023-02-20T06:49:54;31.13;;;18.23;;
55069;SDS011;40967;52.070;8.596;2023-02-20T06:52:19;33.97;;;20.83;;
55069;SDS011;40967;52.070;8.596;2023-02-20T06:54:45;32.10;;;19.60;;
55069;SDS011;40967;52.070;8.596;2023-02-20T06:57:10;32.07;;;19.20;;
55069;SDS011;40967;52.070;8.596;2023-02-20T06:59:36;27.50;;;18.88;;
55069;SDS011;40967;52.070;8.596;2023-02-20T07:02:06;32.13;;;20.48;;
55069;SDS011;40967;52.070;8.596;2023-02-20T07:04:41;34.28;;;20.75;;
55069;SDS011;40967;52.070;8.596;2023-02-20T07:07:15;33.80;;;20.73;;
55069;SDS011;40967;52.070;8.596;2023-02-20T07:09:42;30.13;;;18.05;;
55069;SDS011;40967;52.070;8.596;2023-02-20T07:12:10;34.15;;;21.75;;
55069;SDS011;40967;52.070;8.596;2023-02-20T07:14:36;33.83;;;21.67;;
55069;SDS011;40967;52.070;8.596;2023-02-20T07:17:01;37.40;;;23.33;;
55069;SDS011;40967;52.070;8.596;2023-02-20T07:19:27;34.38;;;22.40;;
55069;SDS011;40967;52.070;8.596;2023-02-20T07:21:52;38.33;;;24.13;;
55069;SDS011;40967;52.070;8.596;2023-02-20T07:24:18;38.83;;;24.53;;
55069;SDS011;40967;52.070;8.596;2023-02-20T07:26:43;38.57;;;23.93;;
55069;SDS011;40967;52.070;8.596;2023-02-20T07:29:12;33.85;;;22.33;;
55069;SDS011;40967;52.070;8.596;2023-02-20T07:31:41;36.67;;;23.83;;
55069;SDS011;40967;52.070;8.596;2023-02-20T07:34:11;34.03;;;22.40;;
55069;SDS011;40967;52.070;8.596;2023-02-20T07:36:36;42.20;;;25.27;;
55069;SDS011;40967;52.070;8.596;2023-02-20T07:39:02;34.07;;;21.97;;
55069;SDS011;40967;52.070;8.596;2023-02-20T07:41:30;31.45;;;21.52;;
55069;SDS011;40967;52.070;8.596;2023-02-20T07:43:59;35.55;;;22.73;;
55069;SDS011;40967;52.070;8.596;2023-02-20T07:46:26;33.10;;;21.90;;
55069;SDS011;40967;52.070;8.596;2023-02-20T07:48:53;33.83;;;21.13;;
55069;SDS011;40967;52.070;8.596;2023-02-20T07:51:19;30.20;;;19.67;;
55069;SDS011;40967;52.070;8.596;2023-02-20T07:53:48;33.40;;;20.97;;
55069;SDS011;40967;52.070;8.596;2023-02-20T07:56:14;29.70;;;19.98;;
55069;SDS011;40967;52.070;8.596;2023-02-20T07:58:43;28.70;;;18.58;;
55069;SDS011;40967;52.070;8.596;2023-02-20T08:01:09;31.63;;;19.92;;
55069;SDS011;40967;52.070;8.596;2023-02-20T08:03:34;26.27;;;17.87;;
55069;SDS011;40967;52.070;8.596;2023-02-20T08:06:00;25.13;;;16.83;;
55069;SDS011;40967;52.070;8.596;2023-02-20T08:08:27;28.77;;;18.80;;
55069;SDS011;40967;52.070;8.596;2023-02-20T08:10:53;30.83;;;20.02;;
55069;SDS011;40967;52.070;8.596;2023-02-20T08:13:18;26.47;;;18.53;;
55069;SDS011;40967;52.070;8.596;2023-02-20T08:15:56;28.00;;;17.65;;
55069;SDS011;40967;52.070;8.596;2023-02-20T08:18:32;24.45;;;16.40;;
55069;SDS011;40967;52.070;8.596;2023-02-20T08:20:57;28.57;;;18.30;;
55069;SDS011;40967;52.070;8.596;2023-02-20T08:23:23;24.17;;;16.23;;
55069;SDS011;40967;52.070;8.596;2023-02-20T08:25:48;25.00;;;15.98;;
55069;SDS011;40967;52.070;8.596;2023-02-20T08:28:14;31.43;;;19.77;;
55069;SDS011;40967;52.070;8.596;2023-02-20T08:30:40;29.95;;;19.98;;
55069;SDS011;40967;52.070;8.596;2023-02-20T08:33:06;26.63;;;17.60;;
55069;SDS011;40967;52.070;8.596;2023-02-20T08:35:39;27.75;;;17.85;;
55069;SDS011;40967;52.070;8.596;2023-02-20T08:38:21;27.08;;;17.60;;
55069;SDS011;40967;52.070;8.596;2023-02-20T08:40:49;28.65;;;18.50;;
55069;SDS011;40967;52.070;8.596;2023-02-20T08:43:14;27.23;;;17.95;;
55069;SDS011;40967;52.070;8.596;2023-02-20T08:45:40;26.60;;;18.27;;
55069;SDS011;40967;52.070;8.596;2023-02-20T08:48:06;28.52;;;18.63;;
55069;SDS011;40967;52.070;8.596;2023-02-20T08:50:33;29.02;;;19.15;;
55069;SDS011;40967;52.070;8.596;2023-02-20T08:53:00;29.47;;;18.30;;
55069;SDS011;40967;52.070;8.596;2023-02-20T08:55:27;33.25;;;20.80;;
55069;SDS011;40967;52.070;8.596;2023-02-20T08:57:52;33.50;;;20.63;;
55069;SDS011;40967;52.070;8.596;2023-02-20T09:00:20;31.45;;;20.17;;
55069;SDS011;40967;52.070;8.596;2023-02-20T09:02:50;33.20;;;19.83;;
55069;SDS011;40967;52.070;8.596;2023-02-20T09:05:36;32.10;;;20.20;;
55069;SDS011;40967;52.070;8.596;2023-02-20T09:08:02;29.30;;;18.30;;
55069;SDS011;40967;52.070;8.596;2023-02-20T09:10:27;31.63;;;18.17;;
55069;SDS011;40967;52.070;8.596;2023-02-20T09:12:53;26.17;;;16.58;;
55069;SDS011;40967;52.070;8.596;2023-02-20T09:15:19;30.73;;;19.02;;
55069;SDS011;40967;52.070;8.596;2023-02-20T09:17:47;27.77;;;17.27;;
55069;SDS011;40967;52.070;8.596;2023-02-20T09:20:15;28.67;;;18.08;;
55069;SDS011;40967;52.070;8.596;2023-02-20T09:22:42;29.67;;;17.65;;
55069;SDS011;40967;52.070;8.596;2023-02-20T09:25:09;29.13;;;18.60;;
55069;SDS011;40967;52.070;8.596;2023-02-20T09:27:36;32.08;;;19.42;;
55069;SDS011;40967;52.070;8.596;2023-02-20T09:30:01;32.47;;;18.80;;
55069;SDS011;40967;52.070;8.596;2023-02-20T09:32:28;27.90;;;18.52;;
55069;SDS011;40967;52.070;8.596;2023-02-20T09:34:53;35.10;;;20.07;;
55069;SDS011;40967;52.070;8.596;2023-02-20T09:37:23;32.25;;;19.40;;
55069;SDS011;40967;52.070;8.596;2023-02-20T09:39:49;30.55;;;18.80;;
55069;SDS011;40967;52.070;8.596;2023-02-20T09:49:55;37.30;;;22.77;;
55069;SDS011;40967;52.070;8.596;2023-02-20T09:52:28;34.10;;;21.63;;
55069;SDS011;40967;52.070;8.596;2023-02-20T09:55:00;29.83;;;19.67;;
55069;SDS011;40967;52.070;8.596;2023-02-20T09:57:28;35.65;;;22.15;;
55069;SDS011;40967;52.070;8.596;2023-02-20T10:00:13;32.92;;;21.48;;
55069;SDS011;40967;52.070;8.596;2023-02-20T10:02:59;36.50;;;22.60;;
55069;SDS011;40967;52.070;8.596;2023-02-20T10:05:37;33.03;;;22.13;;
55069;SDS011;40967;52.070;8.596;2023-02-20T10:08:03;31.60;;;21.17;;
55069;SDS011;40967;52.070;8.596;2023-02-20T10:10:33;39.25;;;23.77;;
55069;SDS011;40967;52.070;8.596;2023-02-20T10:13:37;40.45;;;24.38;;
55069;SDS011;40967;52.070;8.596;2023-02-20T10:15:58;36.03;;;22.73;;
55069;SDS011;40967;52.070;8.596;2023-02-20T10:18:35;36.15;;;22.65;;
55069;SDS011;40967;52.070;8.596;2023-02-20T10:30:30;37.65;;;23.90;;
55069;SDS011;40967;52.070;8.596;2023-02-20T10:32:58;38.63;;;23.98;;
55069;SDS011;40967;52.070;8.596;2023-02-20T10:35:31;39.83;;;24.77;;
55069;SDS011;40967;52.070;8.596;2023-02-20T10:38:03;40.17;;;24.10;;
55069;SDS011;40967;52.070;8.596;2023-02-20T10:40:40;42.90;;;25.05;;
55069;SDS011;40967;52.070;8.596;2023-02-20T10:43:26;42.28;;;24.67;;
55069;SDS011;40967;52.070;8.596;2023-02-20T10:46:13;40.15;;;24.55;;
55069;SDS011;40967;52.070;8.596;2023-02-20T10:48:55;37.30;;;23.90;;
55069;SDS011;40967;52.070;8.596;2023-02-20T10:51:25;44.75;;;26.58;;
55069;SDS011;40967;52.070;8.596;2023-02-20T10:53:58;42.55;;;25.52;;
55069;SDS011;40967;52.070;8.596;2023-02-20T10:56:43;35.53;;;22.30;;
55069;SDS011;40967;52.070;8.596;2023-02-20T10:59:22;38.75;;;23.85;;
55069;SDS011;40967;52.070;8.596;2023-02-20T11:01:55;38.60;;;24.77;;
55069;SDS011;40967;52.070;8.596;2023-02-20T11:04:31;40.05;;;24.77;;
55069;SDS011;40967;52.070;8.596;2023-02-20T11:07:02;37.00;;;23.60;;
55069;SDS011;40967;52.070;8.596;2023-02-20T11:12:09;40.45;;;25.83;;
55069;SDS011;40967;52.070;8.596;2023-02-20T11:14:48;41.65;;;25.75;;
55069;SDS011;40967;52.070;8.596;2023-02-20T11:17:20;44.45;;;26.77;;
55069;SDS011;40967;52.070;8.596;2023-02-20T11:19:52;44.08;;;26.20;;
55069;SDS011;40967;52.070;8.596;2023-02-20T11:27:55;31.98;;;21.63;;
55069;SDS011;40967;52.070;8.596;2023-02-20T11:30:30;34.42;;;21.50;;
55069;SDS011;40967;52.070;8.596;2023-02-20T11:33:20;33.63;;;21.55;;
55069;SDS011;40967;52.070;8.596;2023-02-20T11:35:52;35.53;;;21.67;;
55069;SDS011;40967;52.070;8.596;2023-02-20T11:40:46;37.10;;;21.95;;
55069;SDS011;40967;52.070;8.596;2023-02-20T12:00:23;34.03;;;19.33;;
55069;SDS011;40967;52.070;8.596;2023-02-20T12:02:54;30.48;;;17.95;;
55069;SDS011;40967;52.070;8.596;2023-02-20T12:05:36;31.83;;;19.33;;
55069;SDS011;40967;52.070;8.596;2023-02-20T12:11:21;29.20;;;18.27;;
55069;SDS011;40967;52.070;8.596;2023-02-20T12:13:50;33.10;;;19.33;;
55069;SDS011;40967;52.070;8.596;2023-02-20T12:16:25;36.37;;;21.57;;
55069;SDS011;40967;52.070;8.596;2023-02-20T12:24:28;33.35;;;18.52;;
55069;SDS011;40967;52.070;8.596;2023-02-20T12:30:05;34.95;;;18.77;;
55069;SDS011;40967;52.070;8.596;2023-02-20T12:38:47;29.58;;;15.93;;
55069;SDS011;40967;52.070;8.596;2023-02-20T12:43:58;28.52;;;16.80;;
55069;SDS011;40967;52.070;8.596;2023-02-20T12:59:57;30.90;;;16.93;;
55069;SDS011;40967;52.070;8.596;2023-02-20T13:04:55;25.92;;;15.05;;
55069;SDS011;40967;52.070;8.596;2023-02-20T13:10:03;23.48;;;14.82;;
55069;SDS011;40967;52.070;8.596;2023-02-20T13:12:36;24.58;;;14.77;;
55069;SDS011;40967;52.070;8.596;2023-02-20T13:20:32;26.67;;;15.05;;
55069;SDS011;40967;52.070;8.596;2023-02-20T13:23:04;23.30;;;12.85;;
55069;SDS011;40967;52.070;8.596;2023-02-20T13:25:50;20.38;;;12.93;;
55069;SDS011;40967;52.070;8.596;2023-02-20T13:30:44;23.02;;;13.00;;
55069;SDS011;40967;52.070;8.596;2023-02-20T13:33:30;23.42;;;12.73;;
55069;SDS011;40967;52.070;8.596;2023-02-20T13:35:56;22.20;;;13.07;;
55069;SDS011;40967;52.070;8.596;2023-02-20T13:38:23;19.33;;;11.65;;
55069;SDS011;40967;52.070;8.596;2023-02-20T13:45:48;24.77;;;12.38;;
55069;SDS011;40967;52.070;8.596;2023-02-20T13:56:17;20.00;;;10.93;;
55069;SDS011;40967;52.070;8.596;2023-02-20T13:58:56;18.17;;;10.47;;
55069;SDS011;40967;52.070;8.596;2023-02-20T14:01:23;21.67;;;12.75;;
55069;SDS011;40967;52.070;8.596;2023-02-20T14:03:58;20.58;;;11.98;;
55069;SDS011;40967;52.070;8.596;2023-02-20T14:06:28;25.17;;;13.35;;
55069;SDS011;40967;52.070;8.596;2023-02-20T14:09:15;21.70;;;12.55;;
55069;SDS011;40967;52.070;8.596;2023-02-20T14:11:42;22.63;;;12.00;;
55069;SDS011;40967;52.070;8.596;2023-02-20T14:14:08;20.23;;;12.23;;
55069;SDS011;40967;52.070;8.596;2023-02-20T14:16:45;21.08;;;12.65;;
55069;SDS011;40967;52.070;8.596;2023-02-20T14:21:48;20.90;;;11.52;;
55069;SDS011;40967;52.070;8.596;2023-02-20T14:26:42;17.73;;;11.35;;
55069;SDS011;40967;52.070;8.596;2023-02-20T14:29:18;21.10;;;12.02;;
55069;SDS011;40967;52.070;8.596;2023-02-20T14:31:49;15.68;;;9.82;;
55069;SDS011;40967;52.070;8.596;2023-02-20T14:34:37;19.50;;;11.00;;
55069;SDS011;40967;52.070;8.596;2023-02-20T14:42:17;20.83;;;12.50;;
55069;SDS011;40967;52.070;8.596;2023-02-20T14:44:49;24.60;;;14.37;;
55069;SDS011;40967;52.070;8.596;2023-02-20T14:47:22;21.75;;;13.27;;
55069;SDS011;40967;52.070;8.596;2023-02-20T14:49:48;18.63;;;11.77;;
55069;SDS011;40967;52.070;8.596;2023-02-20T14:52:18;21.40;;;13.82;;
55069;SDS011;40967;52.070;8.596;2023-02-20T14:54:55;19.13;;;11.95;;
55069;SDS011;40967;52.070;8.596;2023-02-20T14:57:25;21.80;;;13.68;;
55069;SDS011;40967;52.070;8.596;2023-02-20T15:00:05;19.70;;;12.45;;
55069;SDS011;40967;52.070;8.596;2023-02-20T15:02:52;24.37;;;14.17;;
55069;SDS011;40967;52.070;8.596;2023-02-20T15:05:25;19.43;;;11.40;;
55069;SDS011;40967;52.070;8.596;2023-02-20T15:07:59;24.52;;;13.13;;
55069;SDS011;40967;52.070;8.596;2023-02-20T15:10:40;19.33;;;10.68;;
55069;SDS011;40967;52.070;8.596;2023-02-20T15:13:13;18.70;;;11.07;;
55069;SDS011;40967;52.070;8.596;2023-02-20T15:15:43;20.43;;;11.83;;
55069;SDS011;40967;52.070;8.596;2023-02-20T15:18:12;18.60;;;11.07;;
55069;SDS011;40967;52.070;8.596;2023-02-20T15:20:55;20.70;;;11.98;;
55069;SDS011;40967;52.070;8.596;2023-02-20T15:23:27;17.53;;;10.80;;
55069;SDS011;40967;52.070;8.596;2023-02-20T15:25:54;23.98;;;13.73;;
55069;SDS011;40967;52.070;8.596;2023-02-20T15:33:35;21.20;;;11.93;;
55069;SDS011;40967;52.070;8.596;2023-02-20T15:36:05;18.92;;;12.30;;
55069;SDS011;40967;52.070;8.596;2023-02-20T15:38:35;18.85;;;11.15;;
55069;SDS011;40967;52.070;8.596;2023-02-20T15:41:01;23.27;;;12.57;;
55069;SDS011;40967;52.070;8.596;2023-02-20T15:43:28;17.55;;;10.77;;
55069;SDS011;40967;52.070;8.596;2023-02-20T15:45:54;20.52;;;12.13;;
55069;SDS011;40967;52.070;8.596;2023-02-20T15:48:20;19.47;;;11.70;;
55069;SDS011;40967;52.070;8.596;2023-02-20T15:50:46;16.63;;;10.30;;
55069;SDS011;40967;52.070;8.596;2023-02-20T15:53:22;18.23;;;10.40;;
55069;SDS011;40967;52.070;8.596;2023-02-20T15:55:54;18.65;;;10.75;;
55069;SDS011;40967;52.070;8.596;2023-02-20T15:58:23;21.30;;;11.38;;
55069;SDS011;40967;52.070;8.596;2023-02-20T16:00:57;19.25;;;11.05;;
55069;SDS011;40967;52.070;8.596;2023-02-20T16:03:24;16.92;;;10.43;;
55069;SDS011;40967;52.070;8.596;2023-02-20T16:05:51;20.65;;;11.98;;
55069;SDS011;40967;52.070;8.596;2023-02-20T16:08:17;22.40;;;13.18;;
55069;SDS011;40967;52.070;8.596;2023-02-20T16:10:43;23.25;;;12.63;;
55069;SDS011;40967;52.070;8.596;2023-02-20T16:13:21;19.40;;;11.50;;
55069;SDS011;40967;52.070;8.596;2023-02-20T16:16:26;17.48;;;10.73;;
55069;SDS011;40967;52.070;8.596;2023-02-20T16:19:01;16.80;;;10.40;;
55069;SDS011;40967;52.070;8.596;2023-02-20T16:21:27;18.13;;;10.40;;
55069;SDS011;40967;52.070;8.596;2023-02-20T16:23:53;16.97;;;10.33;;
55069;SDS011;40967;52.070;8.596;2023-02-20T16:26:20;18.85;;;10.50;;
55069;SDS011;40967;52.070;8.596;2023-02-20T16:28:57;18.42;;;10.95;;
55069;SDS011;40967;52.070;8.596;2023-02-20T16:34:28;15.43;;;9.15;;
55069;SDS011;40967;52.070;8.596;2023-02-20T16:36:58;16.40;;;10.68;;
55069;SDS011;40967;52.070;8.596;2023-02-20T16:39:24;17.75;;;9.95;;
55069;SDS011;40967;52.070;8.596;2023-02-20T16:41:49;18.37;;;10.23;;
55069;SDS011;40967;52.070;8.596;2023-02-20T16:44:35;17.57;;;10.87;;
55069;SDS011;40967;52.070;8.596;2023-02-20T16:47:04;13.70;;;8.73;;
55069;SDS011;40967;52.070;8.596;2023-02-20T16:49:32;15.63;;;8.80;;
55069;SDS011;40967;52.070;8.596;2023-02-20T16:52:01;13.60;;;8.52;;
55069;SDS011;40967;52.070;8.596;2023-02-20T16:54:33;13.73;;;8.27;;
55069;SDS011;40967;52.070;8.596;2023-02-20T16:56:58;14.75;;;9.00;;
55069;SDS011;40967;52.070;8.596;2023-02-20T16:59:24;16.30;;;10.40;;
55069;SDS011;40967;52.070;8.596;2023-02-20T17:01:49;18.97;;;10.87;;
55069;SDS011;40967;52.070;8.596;2023-02-20T17:04:15;16.55;;;10.40;;
55069;SDS011;40967;52.070;8.596;2023-02-20T17:06:43;17.35;;;10.88;;
55069;SDS011;40967;52.070;8.596;2023-02-20T17:09:09;14.57;;;9.07;;
55069;SDS011;40967;52.070;8.596;2023-02-20T17:11:35;15.23;;;9.37;;
55069;SDS011;40967;52.070;8.596;2023-02-20T17:14:00;14.60;;;8.52;;